sensor_id;sensor_type;location;lat;lon;timestamp;temperature;humidity
33067;DHT22;19428;49.024;8.366;2022-12-11T00:02:00;-0.30;99.90
33067;DHT22;19428;49.024;8.366;2022-12-11T00:04:26;0.00;99.90
33067;DHT22;19428;49.024;8.366;2022-12-11T00:06:52;0.10;99.90
33067;DHT22;19428;49.024;8.366;2022-12-11T00:09:19;0.10;99.90
33067;DHT22;19428;49.024;8.366;2022-12-11T00:11:45;0.20;99.90
33067;DHT22;19428;49.024;8.366;2022-12-11T00:14:12;0.10;99.90
33067;DHT22;19428;49.024;8.366;2022-12-11T00:16:38;0.10;99.90
33067;DHT22;19428;49.024;8.366;2022-12-11T00:19:04;0.00;99.90
33067;DHT22;19428;49.024;8.366;2022-12-11T00:21:29;0.00;99.90
33067;DHT22;19428;49.024;8.366;2022-12-11T00:23:55;0.00;99.90
33067;DHT22;19428;49.024;8.366;2022-12-11T00:26:21;-0.10;99.90
33067;DHT22;19428;49.024;8.366;2022-12-11T00:28:47;-0.10;99.90
33067;DHT22;19428;49.024;8.366;2022-12-11T00:31:19;-0.10;99.90
33067;DHT22;19428;49.024;8.366;2022-12-11T00:33:46;-0.10;99.90
33067;DHT22;19428;49.024;8.366;2022-12-11T00:36:19;-0.10;99.90
33067;DHT22;19428;49.024;8.366;2022-12-11T00:38:45;-0.10;99.90
33067;DHT22;19428;49.024;8.366;2022-12-11T00:41:11;-0.10;99.90
33067;DHT22;19428;49.024;8.366;2022-12-11T00:43:37;-0.10;99.90
33067;DHT22;19428;49.024;8.366;2022-12-11T00:46:02;-0.10;99.90
33067;DHT22;19428;49.024;8.366;2022-12-11T00:48:28;-0.10;99.90
33067;DHT22;19428;49.024;8.366;2022-12-11T00:50:54;-0.20;99.90
33067;DHT22;19428;49.024;8.366;2022-12-11T00:53:20;-0.20;99.90
33067;DHT22;19428;49.024;8.366;2022-12-11T00:55:45;-0.20;99.90
33067;DHT22;19428;49.024;8.366;2022-12-11T00:58:12;-0.20;99.90
33067;DHT22;19428;49.024;8.366;2022-12-11T01:00:39;-0.10;99.90
33067;DHT22;19428;49.024;8.366;2022-12-11T01:03:05;-0.30;99.90
33067;DHT22;19428;49.024;8.366;2022-12-11T01:05:32;-0.20;99.90
33067;DHT22;19428;49.024;8.366;2022-12-11T01:07:58;-0.20;99.90
33067;DHT22;19428;49.024;8.366;2022-12-11T01:10:23;-0.30;99.90
33067;DHT22;19428;49.024;8.366;2022-12-11T01:15:27;-0.30;99.90
33067;DHT22;19428;49.024;8.366;2022-12-11T01:17:53;-0.40;99.90
33067;DHT22;19428;49.024;8.366;2022-12-11T01:20:20;-0.40;99.90
33067;DHT22;19428;49.024;8.366;2022-12-11T01:22:46;-0.40;99.90
33067;DHT22;19428;49.024;8.366;2022-12-11T01:25:12;-0.60;99.90
33067;DHT22;19428;49.024;8.366;2022-12-11T01:27:38;-0.60;99.90
33067;DHT22;19428;49.024;8.366;2022-12-11T01:30:06;-0.60;99.90
33067;DHT22;19428;49.024;8.366;2022-12-11T01:32:33;-0.70;99.90
33067;DHT22;19428;49.024;8.366;2022-12-11T01:34:59;-0.70;99.90
33067;DHT22;19428;49.024;8.366;2022-12-11T01:37:24;-0.70;99.90
33067;DHT22;19428;49.024;8.366;2022-12-11T01:39:50;-0.70;99.90
33067;DHT22;19428;49.024;8.366;2022-12-11T01:42:19;-0.70;99.90
33067;DHT22;19428;49.024;8.366;2022-12-11T01:47:11;-0.80;99.90
33067;DHT22;19428;49.024;8.366;2022-12-11T01:49:39;-0.80;99.90
33067;DHT22;19428;49.024;8.366;2022-12-11T01:52:17;-0.80;99.90
33067;DHT22;19428;49.024;8.366;2022-12-11T01:54:44;-0.90;99.90
33067;DHT22;19428;49.024;8.366;2022-12-11T01:57:10;-0.90;99.90
33067;DHT22;19428;49.024;8.366;2022-12-11T01:59:40;-0.90;99.90
33067;DHT22;19428;49.024;8.366;2022-12-11T02:02:16;-1.00;99.90
33067;DHT22;19428;49.024;8.366;2022-12-11T02:04:45;-1.00;99.90
33067;DHT22;19428;49.024;8.366;2022-12-11T02:07:11;-1.10;99.90
33067;DHT22;19428;49.024;8.366;2022-12-11T02:09:40;-1.10;99.90
33067;DHT22;19428;49.024;8.366;2022-12-11T02:30:51;-1.50;99.90
33067;DHT22;19428;49.024;8.366;2022-12-11T02:36:37;-1.50;99.90
33067;DHT22;19428;49.024;8.366;2022-12-11T02:39:06;-1.40;99.90
33067;DHT22;19428;49.024;8.366;2022-12-11T02:41:33;-1.50;99.90
33067;DHT22;19428;49.024;8.366;2022-12-11T02:44:01;-1.60;99.90
33067;DHT22;19428;49.024;8.366;2022-12-11T02:46:28;-1.50;99.90
33067;DHT22;19428;49.024;8.366;2022-12-11T02:48:56;-1.50;99.90
33067;DHT22;19428;49.024;8.366;2022-12-11T02:51:30;-1.60;99.90
33067;DHT22;19428;49.024;8.366;2022-12-11T02:53:58;-1.60;99.90
33067;DHT22;19428;49.024;8.366;2022-12-11T02:56:29;-1.50;99.90
33067;DHT22;19428;49.024;8.366;2022-12-11T02:59:06;-1.40;99.90
33067;DHT22;19428;49.024;8.366;2022-12-11T03:01:33;-1.50;99.90
33067;DHT22;19428;49.024;8.366;2022-12-11T03:03:59;-1.40;99.90
33067;DHT22;19428;49.024;8.366;2022-12-11T03:06:30;-1.40;99.90
33067;DHT22;19428;49.024;8.366;2022-12-11T03:08:56;-1.30;99.90
33067;DHT22;19428;49.024;8.366;2022-12-11T03:11:22;-1.40;99.90
33067;DHT22;19428;49.024;8.366;2022-12-11T03:13:48;-1.30;99.90
33067;DHT22;19428;49.024;8.366;2022-12-11T03:22:03;-1.30;99.90
33067;DHT22;19428;49.024;8.366;2022-12-11T03:24:40;-1.30;99.90
33067;DHT22;19428;49.024;8.366;2022-12-11T03:27:18;-1.30;99.90
33067;DHT22;19428;49.024;8.366;2022-12-11T03:29:59;-1.20;99.90
33067;DHT22;19428;49.024;8.366;2022-12-11T03:32:39;-1.20;99.90
33067;DHT22;19428;49.024;8.366;2022-12-11T03:35:17;-1.20;99.90
33067;DHT22;19428;49.024;8.366;2022-12-11T03:37:44;-1.20;99.90
33067;DHT22;19428;49.024;8.366;2022-12-11T03:40:15;-1.20;99.90
33067;DHT22;19428;49.024;8.366;2022-12-11T03:42:43;-1.10;99.90
33067;DHT22;19428;49.024;8.366;2022-12-11T03:45:09;-1.10;99.90
33067;DHT22;19428;49.024;8.366;2022-12-11T03:47:36;-1.10;99.90
33067;DHT22;19428;49.024;8.366;2022-12-11T03:50:04;-1.10;99.90
33067;DHT22;19428;49.024;8.366;2022-12-11T03:52:32;-1.10;99.90
33067;DHT22;19428;49.024;8.366;2022-12-11T03:55:00;-1.00;99.90
33067;DHT22;19428;49.024;8.366;2022-12-11T03:57:30;-1.00;99.90
33067;DHT22;19428;49.024;8.366;2022-12-11T03:59:57;-1.00;99.90
33067;DHT22;19428;49.024;8.366;2022-12-11T04:02:22;-0.90;99.90
33067;DHT22;19428;49.024;8.366;2022-12-11T04:04:48;-0.90;99.90
33067;DHT22;19428;49.024;8.366;2022-12-11T04:07:13;-0.90;99.90
33067;DHT22;19428;49.024;8.366;2022-12-11T04:09:39;-0.90;99.90
33067;DHT22;19428;49.024;8.366;2022-12-11T04:12:05;-0.90;99.90
33067;DHT22;19428;49.024;8.366;2022-12-11T04:14:30;-0.80;99.90
33067;DHT22;19428;49.024;8.366;2022-12-11T04:17:22;-0.90;99.90
33067;DHT22;19428;49.024;8.366;2022-12-11T04:20:06;-0.90;99.90
33067;DHT22;19428;49.024;8.366;2022-12-11T04:22:50;-0.90;99.90
33067;DHT22;19428;49.024;8.366;2022-12-11T04:25:34;-0.90;99.90
33067;DHT22;19428;49.024;8.366;2022-12-11T04:28:00;-0.90;99.90
33067;DHT22;19428;49.024;8.366;2022-12-11T04:30:26;-0.90;99.90
33067;DHT22;19428;49.024;8.366;2022-12-11T04:32:53;-0.80;99.90
33067;DHT22;19428;49.024;8.366;2022-12-11T04:35:19;-0.90;99.90
33067;DHT22;19428;49.024;8.366;2022-12-11T04:37:45;-0.80;99.90
33067;DHT22;19428;49.024;8.366;2022-12-11T04:40:14;-0.90;99.90
33067;DHT22;19428;49.024;8.366;2022-12-11T04:42:40;-0.80;99.90
33067;DHT22;19428;49.024;8.366;2022-12-11T04:45:07;-0.80;99.90
33067;DHT22;19428;49.024;8.366;2022-12-11T04:47:37;-0.80;99.90
33067;DHT22;19428;49.024;8.366;2022-12-11T04:50:05;-0.80;99.90
33067;DHT22;19428;49.024;8.366;2022-12-11T04:52:31;-0.70;99.90
33067;DHT22;19428;49.024;8.366;2022-12-11T04:54:57;-0.70;99.90
33067;DHT22;19428;49.024;8.366;2022-12-11T04:57:22;-0.70;99.90
33067;DHT22;19428;49.024;8.366;2022-12-11T04:59:48;-0.70;99.90
33067;DHT22;19428;49.024;8.366;2022-12-11T05:02:14;-0.70;99.90
33067;DHT22;19428;49.024;8.366;2022-12-11T05:04:40;-0.70;99.90
33067;DHT22;19428;49.024;8.366;2022-12-11T05:07:06;-0.80;99.90
33067;DHT22;19428;49.024;8.366;2022-12-11T05:09:34;-0.70;99.90
33067;DHT22;19428;49.024;8.366;2022-12-11T05:11:59;-0.70;99.90
33067;DHT22;19428;49.024;8.366;2022-12-11T05:14:25;-0.80;99.90
33067;DHT22;19428;49.024;8.366;2022-12-11T05:16:52;-0.80;99.90
33067;DHT22;19428;49.024;8.366;2022-12-11T05:19:17;-0.80;99.90
33067;DHT22;19428;49.024;8.366;2022-12-11T05:21:43;-0.80;99.90
33067;DHT22;19428;49.024;8.366;2022-12-11T05:24:08;-0.80;99.90
33067;DHT22;19428;49.024;8.366;2022-12-11T05:26:34;-0.80;99.90
33067;DHT22;19428;49.024;8.366;2022-12-11T05:29:00;-0.90;99.90
33067;DHT22;19428;49.024;8.366;2022-12-11T05:31:26;-0.90;99.90
33067;DHT22;19428;49.024;8.366;2022-12-11T05:33:53;-0.90;99.90
33067;DHT22;19428;49.024;8.366;2022-12-11T05:36:21;-0.90;99.90
33067;DHT22;19428;49.024;8.366;2022-12-11T05:38:49;-0.90;99.90
33067;DHT22;19428;49.024;8.366;2022-12-11T05:41:17;-0.90;99.90
33067;DHT22;19428;49.024;8.366;2022-12-11T05:43:43;-0.90;99.90
33067;DHT22;19428;49.024;8.366;2022-12-11T05:46:15;-0.90;99.90
33067;DHT22;19428;49.024;8.366;2022-12-11T05:48:42;-0.90;99.90
33067;DHT22;19428;49.024;8.366;2022-12-11T05:51:09;-0.90;99.90
33067;DHT22;19428;49.024;8.366;2022-12-11T05:53:35;-0.90;99.90
33067;DHT22;19428;49.024;8.366;2022-12-11T05:56:07;-0.90;99.90
33067;DHT22;19428;49.024;8.366;2022-12-11T05:58:33;-0.90;99.90
33067;DHT22;19428;49.024;8.366;2022-12-11T06:00:59;-0.90;99.90
33067;DHT22;19428;49.024;8.366;2022-12-11T06:03:25;-0.90;99.90
33067;DHT22;19428;49.024;8.366;2022-12-11T06:05:51;-0.90;99.90
33067;DHT22;19428;49.024;8.366;2022-12-11T06:08:17;-0.90;99.90
33067;DHT22;19428;49.024;8.366;2022-12-11T06:10:47;-0.90;99.90
33067;DHT22;19428;49.024;8.366;2022-12-11T06:13:14;-0.90;99.90
33067;DHT22;19428;49.024;8.366;2022-12-11T06:15:40;-0.90;99.90
33067;DHT22;19428;49.024;8.366;2022-12-11T06:18:05;-0.90;99.90
33067;DHT22;19428;49.024;8.366;2022-12-11T06:20:32;-0.90;99.90
33067;DHT22;19428;49.024;8.366;2022-12-11T06:22:59;-1.00;99.90
33067;DHT22;19428;49.024;8.366;2022-12-11T06:25:26;-0.90;99.90
33067;DHT22;19428;49.024;8.366;2022-12-11T06:27:52;-0.90;99.90
33067;DHT22;19428;49.024;8.366;2022-12-11T06:30:17;-0.90;99.90
33067;DHT22;19428;49.024;8.366;2022-12-11T06:32:43;-0.90;99.90
33067;DHT22;19428;49.024;8.366;2022-12-11T06:35:09;-1.00;99.90
33067;DHT22;19428;49.024;8.366;2022-12-11T06:37:36;-0.90;99.90
33067;DHT22;19428;49.024;8.366;2022-12-11T06:40:03;-1.00;99.90
33067;DHT22;19428;49.024;8.366;2022-12-11T06:42:30;-1.00;99.90
33067;DHT22;19428;49.024;8.366;2022-12-11T06:44:56;-1.00;99.90
33067;DHT22;19428;49.024;8.366;2022-12-11T06:47:29;-1.00;99.90
33067;DHT22;19428;49.024;8.366;2022-12-11T06:49:55;-1.00;99.90
33067;DHT22;19428;49.024;8.366;2022-12-11T06:52:22;-1.00;99.90
33067;DHT22;19428;49.024;8.366;2022-12-11T06:54:48;-1.00;99.90
33067;DHT22;19428;49.024;8.366;2022-12-11T06:57:14;-1.00;99.90
33067;DHT22;19428;49.024;8.366;2022-12-11T06:59:41;-1.00;99.90
33067;DHT22;19428;49.024;8.366;2022-12-11T07:02:08;-1.00;99.90
33067;DHT22;19428;49.024;8.366;2022-12-11T07:04:34;-1.00;99.90
33067;DHT22;19428;49.024;8.366;2022-12-11T07:07:00;-1.00;99.90
33067;DHT22;19428;49.024;8.366;2022-12-11T07:09:25;-1.00;99.90
33067;DHT22;19428;49.024;8.366;2022-12-11T07:11:51;-1.00;99.90
33067;DHT22;19428;49.024;8.366;2022-12-11T07:14:18;-1.00;99.90
33067;DHT22;19428;49.024;8.366;2022-12-11T07:16:43;-1.00;99.90
33067;DHT22;19428;49.024;8.366;2022-12-11T07:19:09;-0.90;99.90
33067;DHT22;19428;49.024;8.366;2022-12-11T07:21:35;-0.90;99.90
33067;DHT22;19428;49.024;8.366;2022-12-11T07:24:01;-1.00;99.90
33067;DHT22;19428;49.024;8.366;2022-12-11T07:26:27;-0.90;99.90
33067;DHT22;19428;49.024;8.366;2022-12-11T07:28:56;-0.90;99.90
33067;DHT22;19428;49.024;8.366;2022-12-11T07:31:23;-0.90;99.90
33067;DHT22;19428;49.024;8.366;2022-12-11T07:33:57;-0.90;99.90
33067;DHT22;19428;49.024;8.366;2022-12-11T07:36:23;-0.90;99.90
33067;DHT22;19428;49.024;8.366;2022-12-11T07:38:50;-0.80;99.90
33067;DHT22;19428;49.024;8.366;2022-12-11T07:41:16;-0.80;99.90
33067;DHT22;19428;49.024;8.366;2022-12-11T07:43:42;-0.80;99.90
33067;DHT22;19428;49.024;8.366;2022-12-11T07:46:14;-0.80;99.90
33067;DHT22;19428;49.024;8.366;2022-12-11T07:48:42;-0.80;99.90
33067;DHT22;19428;49.024;8.366;2022-12-11T07:51:10;-0.70;99.90
33067;DHT22;19428;49.024;8.366;2022-12-11T07:53:36;-0.80;99.90
33067;DHT22;19428;49.024;8.366;2022-12-11T07:56:02;-0.70;99.90
33067;DHT22;19428;49.024;8.366;2022-12-11T07:58:27;-0.70;99.90
33067;DHT22;19428;49.024;8.366;2022-12-11T08:00:53;-0.70;99.90
33067;DHT22;19428;49.024;8.366;2022-12-11T08:03:19;-0.70;99.90
33067;DHT22;19428;49.024;8.366;2022-12-11T08:05:48;-0.60;99.90
33067;DHT22;19428;49.024;8.366;2022-12-11T08:08:15;-0.60;99.90
33067;DHT22;19428;49.024;8.366;2022-12-11T08:10:41;-0.60;99.90
33067;DHT22;19428;49.024;8.366;2022-12-11T08:13:06;-0.60;99.90
33067;DHT22;19428;49.024;8.366;2022-12-11T08:15:32;-0.50;99.90
33067;DHT22;19428;49.024;8.366;2022-12-11T08:17:58;-0.60;99.90
33067;DHT22;19428;49.024;8.366;2022-12-11T08:20:23;-0.50;99.90
33067;DHT22;19428;49.024;8.366;2022-12-11T08:22:49;-0.50;99.90
33067;DHT22;19428;49.024;8.366;2022-12-11T08:25:15;-0.50;99.90
33067;DHT22;19428;49.024;8.366;2022-12-11T08:27:40;-0.40;99.90
33067;DHT22;19428;49.024;8.366;2022-12-11T08:30:06;-0.30;99.90
33067;DHT22;19428;49.024;8.366;2022-12-11T08:32:33;-0.40;99.90
33067;DHT22;19428;49.024;8.366;2022-12-11T08:35:00;-0.40;99.90
33067;DHT22;19428;49.024;8.366;2022-12-11T08:37:26;-0.30;99.90
33067;DHT22;19428;49.024;8.366;2022-12-11T08:39:52;-0.30;99.90
33067;DHT22;19428;49.024;8.366;2022-12-11T08:42:17;-0.30;99.90
33067;DHT22;19428;49.024;8.366;2022-12-11T08:44:43;-0.20;99.90
33067;DHT22;19428;49.024;8.366;2022-12-11T08:47:08;-0.30;99.90
33067;DHT22;19428;49.024;8.366;2022-12-11T08:49:35;-0.20;99.90
33067;DHT22;19428;49.024;8.366;2022-12-11T08:52:03;-0.20;99.90
33067;DHT22;19428;49.024;8.366;2022-12-11T08:54:29;-0.20;99.90
33067;DHT22;19428;49.024;8.366;2022-12-11T08:56:55;-0.20;99.90
33067;DHT22;19428;49.024;8.366;2022-12-11T08:59:21;-0.20;99.90
33067;DHT22;19428;49.024;8.366;2022-12-11T09:01:47;-0.10;99.90
33067;DHT22;19428;49.024;8.366;2022-12-11T09:04:12;-0.10;99.90
33067;DHT22;19428;49.024;8.366;2022-12-11T09:06:38;-0.10;99.90
33067;DHT22;19428;49.024;8.366;2022-12-11T09:09:05;-0.10;99.90
33067;DHT22;19428;49.024;8.366;2022-12-11T09:11:33;-0.10;99.90
33067;DHT22;19428;49.024;8.366;2022-12-11T09:14:00;0.00;99.90
33067;DHT22;19428;49.024;8.366;2022-12-11T09:16:27;0.00;99.90
33067;DHT22;19428;49.024;8.366;2022-12-11T09:18:55;0.00;99.90
33067;DHT22;19428;49.024;8.366;2022-12-11T09:21:23;0.10;99.90
33067;DHT22;19428;49.024;8.366;2022-12-11T09:23:52;0.00;99.90
33067;DHT22;19428;49.024;8.366;2022-12-11T09:26:18;0.00;99.90
33067;DHT22;19428;49.024;8.366;2022-12-11T09:28:44;0.00;99.90
33067;DHT22;19428;49.024;8.366;2022-12-11T09:31:19;0.10;99.90
33067;DHT22;19428;49.024;8.366;2022-12-11T09:33:48;0.10;99.90
33067;DHT22;19428;49.024;8.366;2022-12-11T09:36:13;0.20;99.90
33067;DHT22;19428;49.024;8.366;2022-12-11T09:38:40;0.20;99.90
33067;DHT22;19428;49.024;8.366;2022-12-11T09:43:56;0.20;99.90
33067;DHT22;19428;49.024;8.366;2022-12-11T09:46:24;0.30;99.90
33067;DHT22;19428;49.024;8.366;2022-12-11T09:48:51;0.20;99.90
33067;DHT22;19428;49.024;8.366;2022-12-11T09:54:03;0.20;99.90
33067;DHT22;19428;49.024;8.366;2022-12-11T09:59:28;0.20;99.90
33067;DHT22;19428;49.024;8.366;2022-12-11T10:05:05;0.20;99.90
33067;DHT22;19428;49.024;8.366;2022-12-11T10:07:51;0.30;99.90
33067;DHT22;19428;49.024;8.366;2022-12-11T10:15:48;0.50;99.90
33067;DHT22;19428;49.024;8.366;2022-12-11T10:18:18;0.40;99.90
33067;DHT22;19428;49.024;8.366;2022-12-11T10:20:49;0.50;99.90
33067;DHT22;19428;49.024;8.366;2022-12-11T10:23:18;0.50;99.90
33067;DHT22;19428;49.024;8.366;2022-12-11T10:25:50;0.60;99.90
33067;DHT22;19428;49.024;8.366;2022-12-11T10:28:19;0.60;99.90
33067;DHT22;19428;49.024;8.366;2022-12-11T10:31:07;0.50;99.90
33067;DHT22;19428;49.024;8.366;2022-12-11T10:34:00;0.50;99.90
33067;DHT22;19428;49.024;8.366;2022-12-11T10:36:34;0.60;99.90
33067;DHT22;19428;49.024;8.366;2022-12-11T10:39:01;0.70;99.90
33067;DHT22;19428;49.024;8.366;2022-12-11T10:41:36;0.70;99.90
33067;DHT22;19428;49.024;8.366;2022-12-11T10:46:42;0.70;99.90
33067;DHT22;19428;49.024;8.366;2022-12-11T10:49:23;0.60;99.90
33067;DHT22;19428;49.024;8.366;2022-12-11T10:51:51;0.70;99.90
33067;DHT22;19428;49.024;8.366;2022-12-11T10:54:34;0.80;99.90
33067;DHT22;19428;49.024;8.366;2022-12-11T10:57:02;0.90;99.90
33067;DHT22;19428;49.024;8.366;2022-12-11T10:59:48;1.00;99.90
33067;DHT22;19428;49.024;8.366;2022-12-11T11:02:33;0.80;99.90
33067;DHT22;19428;49.024;8.366;2022-12-11T11:05:14;0.80;99.90
33067;DHT22;19428;49.024;8.366;2022-12-11T11:07:40;0.90;99.90
33067;DHT22;19428;49.024;8.366;2022-12-11T11:12:43;0.80;99.90
33067;DHT22;19428;49.024;8.366;2022-12-11T11:15:16;0.90;99.90
33067;DHT22;19428;49.024;8.366;2022-12-11T11:17:47;0.80;99.90
33067;DHT22;19428;49.024;8.366;2022-12-11T11:20:20;0.80;99.90
33067;DHT22;19428;49.024;8.366;2022-12-11T11:22:51;1.00;99.90
33067;DHT22;19428;49.024;8.366;2022-12-11T11:25:20;0.90;99.90
33067;DHT22;19428;49.024;8.366;2022-12-11T11:28:07;1.00;99.90
33067;DHT22;19428;49.024;8.366;2022-12-11T11:30:40;0.90;99.90
33067;DHT22;19428;49.024;8.366;2022-12-11T11:33:13;0.90;99.90
33067;DHT22;19428;49.024;8.366;2022-12-11T11:35:57;0.90;99.90
33067;DHT22;19428;49.024;8.366;2022-12-11T11:39:36;0.90;99.90
33067;DHT22;19428;49.024;8.366;2022-12-11T11:41:44;1.00;99.90
33067;DHT22;19428;49.024;8.366;2022-12-11T11:44:15;1.10;99.90
33067;DHT22;19428;49.024;8.366;2022-12-11T11:46:46;1.10;99.90
33067;DHT22;19428;49.024;8.366;2022-12-11T11:49:49;1.00;99.90
33067;DHT22;19428;49.024;8.366;2022-12-11T11:52:28;1.10;99.90
33067;DHT22;19428;49.024;8.366;2022-12-11T11:55:13;1.20;99.90
33067;DHT22;19428;49.024;8.366;2022-12-11T11:57:53;1.00;99.90
33067;DHT22;19428;49.024;8.366;2022-12-11T12:00:24;1.00;99.90
33067;DHT22;19428;49.024;8.366;2022-12-11T12:02:55;0.90;99.90
33067;DHT22;19428;49.024;8.366;2022-12-11T12:05:26;1.10;99.90
33067;DHT22;19428;49.024;8.366;2022-12-11T12:08:06;1.00;99.90
33067;DHT22;19428;49.024;8.366;2022-12-11T12:10:48;1.00;99.90
33067;DHT22;19428;49.024;8.366;2022-12-11T12:13:27;1.10;99.90
33067;DHT22;19428;49.024;8.366;2022-12-11T12:15:57;1.20;99.90
33067;DHT22;19428;49.024;8.366;2022-12-11T12:19:00;1.20;99.90
33067;DHT22;19428;49.024;8.366;2022-12-11T12:21:28;1.20;99.90
33067;DHT22;19428;49.024;8.366;2022-12-11T12:24:17;1.10;99.90
33067;DHT22;19428;49.024;8.366;2022-12-11T12:26:54;1.30;99.90
33067;DHT22;19428;49.024;8.366;2022-12-11T12:32:25;1.10;99.90
33067;DHT22;19428;49.024;8.366;2022-12-11T12:35:21;1.20;99.90
33067;DHT22;19428;49.024;8.366;2022-12-11T12:41:05;1.30;99.90
33067;DHT22;19428;49.024;8.366;2022-12-11T12:46:32;1.30;99.90
33067;DHT22;19428;49.024;8.366;2022-12-11T12:49:09;1.40;99.90
33067;DHT22;19428;49.024;8.366;2022-12-11T12:51:37;1.40;99.90
33067;DHT22;19428;49.024;8.366;2022-12-11T12:54:05;1.40;99.90
33067;DHT22;19428;49.024;8.366;2022-12-11T12:56:35;1.30;99.90
33067;DHT22;19428;49.024;8.366;2022-12-11T12:59:01;1.40;99.90
33067;DHT22;19428;49.024;8.366;2022-12-11T13:01:28;1.40;99.90
33067;DHT22;19428;49.024;8.366;2022-12-11T13:04:01;1.30;99.90
33067;DHT22;19428;49.024;8.366;2022-12-11T13:06:36;1.30;99.90
33067;DHT22;19428;49.024;8.366;2022-12-11T13:11:35;1.30;99.90
33067;DHT22;19428;49.024;8.366;2022-12-11T13:17:21;1.30;99.90
33067;DHT22;19428;49.024;8.366;2022-12-11T13:19:48;1.20;99.90
33067;DHT22;19428;49.024;8.366;2022-12-11T13:24:55;1.20;99.90
33067;DHT22;19428;49.024;8.366;2022-12-11T13:27:43;1.30;99.90
33067;DHT22;19428;49.024;8.366;2022-12-11T13:30:19;1.20;99.90
33067;DHT22;19428;49.024;8.366;2022-12-11T13:33:06;1.20;99.90
33067;DHT22;19428;49.024;8.366;2022-12-11T13:35:33;1.20;99.90
33067;DHT22;19428;49.024;8.366;2022-12-11T13:38:06;1.20;99.90
33067;DHT22;19428;49.024;8.366;2022-12-11T13:40:38;1.20;99.90
33067;DHT22;19428;49.024;8.366;2022-12-11T13:43:20;1.40;99.90
33067;DHT22;19428;49.024;8.366;2022-12-11T13:46:01;1.40;99.90
33067;DHT22;19428;49.024;8.366;2022-12-11T13:51:20;1.40;99.90
33067;DHT22;19428;49.024;8.366;2022-12-11T13:53:47;1.30;99.90
33067;DHT22;19428;49.024;8.366;2022-12-11T13:56:17;1.30;99.90
33067;DHT22;19428;49.024;8.366;2022-12-11T13:58:43;1.30;99.90
33067;DHT22;19428;49.024;8.366;2022-12-11T14:01:11;1.30;99.90
33067;DHT22;19428;49.024;8.366;2022-12-11T14:03:48;1.30;99.90
33067;DHT22;19428;49.024;8.366;2022-12-11T14:06:17;1.40;99.90
33067;DHT22;19428;49.024;8.366;2022-12-11T14:08:43;1.40;99.90
33067;DHT22;19428;49.024;8.366;2022-12-11T14:11:21;1.40;99.90
33067;DHT22;19428;49.024;8.366;2022-12-11T14:13:47;1.40;99.90
33067;DHT22;19428;49.024;8.366;2022-12-11T14:16:21;1.40;99.90
33067;DHT22;19428;49.024;8.366;2022-12-11T14:18:49;1.30;99.90
33067;DHT22;19428;49.024;8.366;2022-12-11T14:21:23;1.30;99.90
33067;DHT22;19428;49.024;8.366;2022-12-11T14:23:51;1.40;99.90
33067;DHT22;19428;49.024;8.366;2022-12-11T14:26:23;1.40;99.90
33067;DHT22;19428;49.024;8.366;2022-12-11T14:28:49;1.40;99.90
33067;DHT22;19428;49.024;8.366;2022-12-11T14:31:20;1.40;99.90
33067;DHT22;19428;49.024;8.366;2022-12-11T14:33:52;1.30;99.90
33067;DHT22;19428;49.024;8.366;2022-12-11T14:36:19;1.30;99.90
33067;DHT22;19428;49.024;8.366;2022-12-11T14:38:58;1.30;99.90
33067;DHT22;19428;49.024;8.366;2022-12-11T14:44:15;1.30;99.90
33067;DHT22;19428;49.024;8.366;2022-12-11T14:46:55;1.40;99.90
33067;DHT22;19428;49.024;8.366;2022-12-11T14:49:51;1.30;99.90
33067;DHT22;19428;49.024;8.366;2022-12-11T14:52:22;1.30;99.90
33067;DHT22;19428;49.024;8.366;2022-12-11T14:54:59;1.40;99.90
33067;DHT22;19428;49.024;8.366;2022-12-11T14:57:28;1.40;99.90
33067;DHT22;19428;49.024;8.366;2022-12-11T14:59:55;1.30;99.90
33067;DHT22;19428;49.024;8.366;2022-12-11T15:02:29;1.20;99.90
33067;DHT22;19428;49.024;8.366;2022-12-11T15:05:12;1.30;99.90
33067;DHT22;19428;49.024;8.366;2022-12-11T15:07:41;1.20;99.90
33067;DHT22;19428;49.024;8.366;2022-12-11T15:10:21;1.20;99.90
33067;DHT22;19428;49.024;8.366;2022-12-11T15:12:47;1.30;99.90
33067;DHT22;19428;49.024;8.366;2022-12-11T15:15:14;1.20;99.90
33067;DHT22;19428;49.024;8.366;2022-12-11T15:17:41;1.20;99.90
33067;DHT22;19428;49.024;8.366;2022-12-11T15:20:09;1.20;99.90
33067;DHT22;19428;49.024;8.366;2022-12-11T15:22:44;1.10;99.90
33067;DHT22;19428;49.024;8.366;2022-12-11T15:25:25;1.10;99.90
33067;DHT22;19428;49.024;8.366;2022-12-11T15:27:56;1.20;99.90
33067;DHT22;19428;49.024;8.366;2022-12-11T15:35:36;1.10;99.90
33067;DHT22;19428;49.024;8.366;2022-12-11T15:38:02;1.10;99.90
33067;DHT22;19428;49.024;8.366;2022-12-11T15:40:28;1.10;99.90
33067;DHT22;19428;49.024;8.366;2022-12-11T15:42:54;1.10;99.90
33067;DHT22;19428;49.024;8.366;2022-12-11T15:45:25;1.10;99.90
33067;DHT22;19428;49.024;8.366;2022-12-11T15:47:53;1.20;99.90
33067;DHT22;19428;49.024;8.366;2022-12-11T15:50:26;1.10;99.90
33067;DHT22;19428;49.024;8.366;2022-12-11T15:52:53;1.20;99.90
33067;DHT22;19428;49.024;8.366;2022-12-11T15:55:21;1.20;99.90
33067;DHT22;19428;49.024;8.366;2022-12-11T15:57:53;1.20;99.90
33067;DHT22;19428;49.024;8.366;2022-12-11T16:00:19;1.20;99.90
33067;DHT22;19428;49.024;8.366;2022-12-11T16:02:46;1.20;99.90
33067;DHT22;19428;49.024;8.366;2022-12-11T16:05:12;1.20;99.90
33067;DHT22;19428;49.024;8.366;2022-12-11T16:07:38;1.10;99.90
33067;DHT22;19428;49.024;8.366;2022-12-11T16:10:05;1.20;99.90
33067;DHT22;19428;49.024;8.366;2022-12-11T16:12:31;1.20;99.90
33067;DHT22;19428;49.024;8.366;2022-12-11T16:14:57;1.20;99.90
33067;DHT22;19428;49.024;8.366;2022-12-11T16:17:22;1.20;99.90
33067;DHT22;19428;49.024;8.366;2022-12-11T16:19:48;1.20;99.90
33067;DHT22;19428;49.024;8.366;2022-12-11T16:22:14;1.20;99.90
33067;DHT22;19428;49.024;8.366;2022-12-11T16:24:40;1.20;99.90
33067;DHT22;19428;49.024;8.366;2022-12-11T16:27:06;1.20;99.90
33067;DHT22;19428;49.024;8.366;2022-12-11T16:29:39;1.20;99.90
33067;DHT22;19428;49.024;8.366;2022-12-11T16:32:05;1.20;99.90
33067;DHT22;19428;49.024;8.366;2022-12-11T16:34:33;1.10;99.90
33067;DHT22;19428;49.024;8.366;2022-12-11T16:36:59;1.10;99.90
33067;DHT22;19428;49.024;8.366;2022-12-11T16:39:25;1.10;99.90
33067;DHT22;19428;49.024;8.366;2022-12-11T16:41:51;1.00;99.90
33067;DHT22;19428;49.024;8.366;2022-12-11T16:44:21;1.00;99.90
33067;DHT22;19428;49.024;8.366;2022-12-11T16:46:47;1.00;99.90
33067;DHT22;19428;49.024;8.366;2022-12-11T16:49:13;1.00;99.90
33067;DHT22;19428;49.024;8.366;2022-12-11T16:51:39;1.00;99.90
33067;DHT22;19428;49.024;8.366;2022-12-11T16:54:05;1.00;99.90
33067;DHT22;19428;49.024;8.366;2022-12-11T16:56:31;0.90;99.90
33067;DHT22;19428;49.024;8.366;2022-12-11T16:58:57;0.90;99.90
33067;DHT22;19428;49.024;8.366;2022-12-11T17:01:23;0.90;99.90
33067;DHT22;19428;49.024;8.366;2022-12-11T17:03:48;0.90;99.90
33067;DHT22;19428;49.024;8.366;2022-12-11T17:06:16;0.90;99.90
33067;DHT22;19428;49.024;8.366;2022-12-11T17:08:42;0.90;99.90
33067;DHT22;19428;49.024;8.366;2022-12-11T17:11:13;0.80;99.90
33067;DHT22;19428;49.024;8.366;2022-12-11T17:13:39;0.80;99.90
33067;DHT22;19428;49.024;8.366;2022-12-11T17:16:06;0.80;99.90